Time;durP1;ratioP1;P1;durP2;ratioP2;P2;SDS_P1;SDS_P2;PMS_P1;PMS_P2;Temp;Humidity;BMP_temperature;BMP_pressure;BME280_temperature;BME280_humidity;BME280_pressure;Samples;Min_cycle;Max_cycle;Signal;HPM_P1;HPM_P2
2023/01/23 00:01:32;;;;;;;22.35;10.50;;;1.00;99.90;;;;;;5079939;28;25089;-71
2023/01/23 00:04:00;;;;;;;23.98;11.93;;;1.00;99.90;;;;;;5079330;28;25137;-71
2023/01/23 00:06:27;;;;;;;25.80;11.90;;;1.00;99.90;;;;;;5097761;28;25065;-71
2023/01/23 00:08:55;;;;;;;23.95;10.93;;;1.00;99.90;;;;;;5097810;28;25080;-71
2023/01/23 00:11:26;;;;;;;27.38;10.65;;;1.00;99.90;;;;;;5097720;28;25064;-71
2023/01/23 00:13:53;;;;;;;24.17;12.15;;;1.00;99.90;;;;;;5097685;28;25078;-71
2023/01/23 00:16:22;;;;;;;21.48;10.60;;;1.00;99.90;;;;;;5079911;28;25048;-71
2023/01/23 00:18:50;;;;;;;23.13;10.95;;;1.00;99.90;;;;;;5097578;28;25100;-71
2023/01/23 00:21:23;;;;;;;25.20;12.13;;;1.00;99.90;;;;;;5098278;28;25053;-71
2023/01/23 00:23:53;;;;;;;24.92;11.13;;;1.00;99.90;;;;;;5097306;28;25054;-71
2023/01/23 00:26:26;;;;;;;27.10;11.75;;;1.00;99.90;;;;;;5097811;28;25105;-71
2023/01/23 00:28:54;;;;;;;26.50;10.55;;;1.10;99.90;;;;;;5097503;28;25111;-71
2023/01/23 00:31:25;;;;;;;30.60;11.63;;;1.00;99.90;;;;;;5097407;28;25067;-71
2023/01/23 00:33:58;;;;;;;26.55;11.27;;;1.10;99.90;;;;;;5097370;28;25065;-71
2023/01/23 00:36:32;;;;;;;27.50;10.55;;;1.00;99.90;;;;;;5097220;28;25102;-71
2023/01/23 00:39:00;;;;;;;32.35;12.57;;;1.00;99.90;;;;;;5097229;28;25060;-71
2023/01/23 00:41:27;;;;;;;28.92;12.18;;;1.10;99.90;;;;;;5079252;28;25073;-71
2023/01/23 00:43:55;;;;;;;30.83;10.85;;;1.00;99.90;;;;;;5097101;28;25083;-71
2023/01/23 00:46:23;;;;;;;25.05;11.27;;;1.00;99.90;;;;;;5079120;28;25117;-71
2023/01/23 00:48:51;;;;;;;28.55;11.65;;;1.00;99.90;;;;;;5097043;28;25072;-71
2023/01/23 00:51:18;;;;;;;26.13;10.75;;;1.00;99.90;;;;;;5079259;28;25051;-71
2023/01/23 00:53:46;;;;;;;28.38;11.00;;;1.00;99.90;;;;;;5096845;28;25059;-71
2023/01/23 00:56:13;;;;;;;26.70;11.40;;;1.00;99.90;;;;;;5096978;28;25068;-71
2023/01/23 00:58:41;;;;;;;23.13;10.45;;;1.00;99.90;;;;;;5062291;28;25119;-71
2023/01/23 01:01:08;;;;;;;19.50;9.73;;;1.00;99.90;;;;;;5097347;28;25092;-71
2023/01/23 01:03:35;;;;;;;19.80;9.65;;;1.00;99.90;;;;;;5097357;28;25077;-71
2023/01/23 01:06:02;;;;;;;20.13;9.60;;;1.00;99.90;;;;;;5096779;28;25132;-71
2023/01/23 01:08:30;;;;;;;26.70;10.55;;;1.00;99.90;;;;;;5062089;28;25077;-71
2023/01/23 01:10:57;;;;;;;18.67;8.40;;;1.00;99.90;;;;;;5096771;28;25058;-71
2023/01/23 01:13:25;;;;;;;19.00;8.95;;;1.00;99.90;;;;;;5096281;28;25058;-71
2023/01/23 01:15:53;;;;;;;20.00;9.25;;;1.00;99.90;;;;;;5097246;28;25093;-71
2023/01/23 01:18:21;;;;;;;19.75;8.10;;;1.00;99.90;;;;;;5096712;28;25082;-71
2023/01/23 01:20:49;;;;;;;19.48;8.68;;;1.00;99.90;;;;;;5097216;28;25132;-71
2023/01/23 01:23:20;;;;;;;24.58;9.25;;;1.00;99.90;;;;;;5096491;28;25048;-71
2023/01/23 01:25:47;;;;;;;20.05;8.55;;;1.10;99.90;;;;;;5097015;28;25055;-71
2023/01/23 01:28:14;;;;;;;22.48;9.75;;;1.10;99.90;;;;;;5096506;28;25086;-71
2023/01/23 01:30:42;;;;;;;22.60;10.63;;;1.00;99.90;;;;;;5078604;28;25097;-71
2023/01/23 01:33:10;;;;;;;25.80;11.20;;;1.00;99.90;;;;;;5096442;28;25069;-71
2023/01/23 01:35:40;;;;;;;27.80;10.85;;;1.00;99.90;;;;;;5097157;28;25067;-71
2023/01/23 01:38:08;;;;;;;27.75;11.30;;;1.00;99.90;;;;;;5096121;28;25079;-71
2023/01/23 01:40:36;;;;;;;24.90;11.18;;;1.00;99.90;;;;;;5096279;28;25058;-71
2023/01/23 01:43:07;;;;;;;24.83;11.30;;;1.00;99.90;;;;;;5078403;28;25079;-71
2023/01/23 01:46:12;;;;;;;30.08;11.32;;;1.00;99.90;;;;;;5096470;28;25071;-71
2023/01/23 01:49:08;;;;;;;26.45;11.15;;;1.00;99.90;;;;;;5096575;28;25075;-71
2023/01/23 01:51:41;;;;;;;21.77;10.00;;;1.10;99.90;;;;;;5096836;28;25056;-71
2023/01/23 01:54:21;;;;;;;27.63;11.43;;;1.00;99.90;;;;;;5096927;28;25066;-71
2023/01/23 01:57:01;;;;;;;28.45;12.00;;;1.10;99.90;;;;;;5096863;28;25136;-71
2023/01/23 01:59:33;;;;;;;33.30;11.73;;;1.10;99.90;;;;;;5078313;28;25078;-71
2023/01/23 02:02:16;;;;;;;26.25;11.40;;;1.10;99.90;;;;;;5096762;28;25145;-71
2023/01/23 02:04:52;;;;;;;29.92;11.02;;;1.10;99.90;;;;;;5096303;28;25072;-71
2023/01/23 02:07:34;;;;;;;34.42;12.30;;;1.10;99.90;;;;;;5096388;28;25109;-71
2023/01/23 02:10:05;;;;;;;30.05;12.25;;;1.10;99.90;;;;;;5096671;28;25079;-71
2023/01/23 02:12:37;;;;;;;27.17;11.50;;;1.10;99.90;;;;;;5078226;28;25138;-71
2023/01/23 02:15:06;;;;;;;29.85;11.18;;;1.10;99.90;;;;;;5096185;28;25087;-71
2023/01/23 02:17:35;;;;;;;38.95;12.82;;;1.10;99.90;;;;;;5096607;28;25112;-71
2023/01/23 02:20:16;;;;;;;35.05;12.63;;;1.10;99.90;;;;;;5095961;28;25071;-71
2023/01/23 02:22:52;;;;;;;29.27;11.52;;;1.10;99.90;;;;;;5096639;28;25077;-71
2023/01/23 02:25:41;;;;;;;33.70;11.95;;;1.10;99.90;;;;;;5097893;28;25057;-71
2023/01/23 02:28:09;;;;;;;43.40;13.75;;;1.00;99.90;;;;;;5100346;28;25102;-71
2023/01/23 02:30:38;;;;;;;37.30;12.10;;;1.10;99.90;;;;;;5099896;28;25127;-71
2023/01/23 02:33:19;;;;;;;29.80;12.60;;;1.10;99.90;;;;;;5100200;28;25077;-71
2023/01/23 02:35:46;;;;;;;41.30;12.95;;;1.10;99.90;;;;;;5081596;28;25116;-71
2023/01/23 02:38:13;;;;;;;39.88;13.27;;;1.10;99.90;;;;;;5099416;28;25100;-71
2023/01/23 02:40:41;;;;;;;39.45;13.20;;;1.10;99.90;;;;;;5081699;28;25067;-71
2023/01/23 02:43:15;;;;;;;44.42;13.07;;;1.10;99.90;;;;;;5099413;28;25048;-71
2023/01/23 02:45:43;;;;;;;35.95;12.32;;;1.10;99.90;;;;;;5099516;28;25070;-71
2023/01/23 02:48:11;;;;;;;51.03;14.75;;;1.10;99.90;;;;;;5099377;28;25128;-71
2023/01/23 02:50:38;;;;;;;36.40;13.05;;;1.10;99.90;;;;;;5100111;28;25097;-71
2023/01/23 02:53:05;;;;;;;46.55;14.57;;;1.00;99.90;;;;;;5099616;28;25058;-70
2023/01/23 02:55:33;;;;;;;47.90;14.77;;;1.00;99.90;;;;;;5099303;28;25121;-71
2023/01/23 03:00:46;;;;;;;43.10;13.35;;;1.10;99.90;;;;;;5084466;28;25060;-70
2023/01/23 03:03:14;;;;;;;35.78;13.80;;;1.00;99.90;;;;;;5099015;28;25096;-71
2023/01/23 03:05:42;;;;;;;37.42;13.27;;;1.00;99.90;;;;;;5099071;28;25102;-71
2023/01/23 03:08:09;;;;;;;42.15;13.02;;;1.10;99.90;;;;;;5099021;28;25083;-71
2023/01/23 03:10:37;;;;;;;71.80;14.50;;;1.10;99.90;;;;;;5099110;28;25069;-71
2023/01/23 03:13:06;;;;;;;39.70;10.90;;;1.10;99.90;;;;;;5098950;28;25079;-71
2023/01/23 03:15:34;;;;;;;40.25;13.35;;;1.10;99.90;;;;;;5099478;28;25063;-71
2023/01/23 03:18:01;;;;;;;41.78;11.38;;;1.00;99.90;;;;;;5080947;28;25094;-71
2023/01/23 03:20:28;;;;;;;57.50;12.55;;;1.10;99.90;;;;;;5081731;28;25078;-70
2023/01/23 03:22:57;;;;;;;50.05;14.18;;;1.10;99.90;;;;;;5081034;28;25125;-71
2023/01/23 03:25:26;;;;;;;48.35;13.38;;;1.10;99.90;;;;;;5098638;28;25145;-70
2023/01/23 03:27:53;;;;;;;75.50;13.07;;;1.10;99.90;;;;;;5099202;28;25062;-70
2023/01/23 03:30:21;;;;;;;38.80;12.48;;;1.00;99.90;;;;;;5080651;28;25076;-70
2023/01/23 03:32:48;;;;;;;47.88;11.95;;;1.00;99.90;;;;;;5080657;28;25066;-71
2023/01/23 03:35:16;;;;;;;38.10;13.52;;;1.00;99.90;;;;;;5098080;28;25059;-70
2023/01/23 03:37:45;;;;;;;49.20;13.45;;;1.00;99.90;;;;;;5099056;28;25061;-70
2023/01/23 03:43:07;;;;;;;36.92;12.73;;;1.00;99.90;;;;;;5098288;28;25049;-70
2023/01/23 03:45:34;;;;;;;31.98;11.02;;;1.00;99.90;;;;;;5098845;28;25119;-70
2023/01/23 03:48:03;;;;;;;35.95;12.63;;;1.00;99.90;;;;;;5080316;28;25060;-71
2023/01/23 03:50:30;;;;;;;34.08;11.13;;;1.00;99.90;;;;;;5098382;28;25062;-70
2023/01/23 03:52:58;;;;;;;33.90;11.05;;;0.90;99.90;;;;;;5098425;28;25099;-70
2023/01/23 03:55:26;;;;;;;33.38;11.00;;;1.00;99.90;;;;;;5098115;28;25111;-70
2023/01/23 03:57:53;;;;;;;40.20;11.30;;;1.00;99.90;;;;;;5098059;28;25220;-70
2023/01/23 04:00:21;;;;;;;35.38;12.05;;;1.00;99.90;;;;;;5080253;28;25082;-70
2023/01/23 04:02:48;;;;;;;39.80;13.20;;;1.00;99.90;;;;;;5097811;28;25064;-70
2023/01/23 04:05:16;;;;;;;29.50;10.02;;;1.00;99.90;;;;;;5098521;28;25126;-70
2023/01/23 04:07:43;;;;;;;34.35;11.57;;;1.00;99.90;;;;;;5063278;28;25061;-70
2023/01/23 04:10:11;;;;;;;33.55;10.85;;;1.00;99.90;;;;;;5097941;28;25055;-70
2023/01/23 04:12:38;;;;;;;30.10;9.77;;;0.90;99.90;;;;;;5098317;28;25084;-70
2023/01/23 04:15:06;;;;;;;25.75;10.52;;;1.00;99.90;;;;;;5063230;28;25136;-71
2023/01/23 04:17:33;;;;;;;34.25;10.07;;;0.90;99.90;;;;;;5079724;28;25134;-70
2023/01/23 04:20:00;;;;;;;32.40;11.45;;;1.00;99.90;;;;;;5097699;28;25066;-70
2023/01/23 04:22:27;;;;;;;31.10;10.45;;;1.00;99.90;;;;;;5097536;28;25064;-70
2023/01/23 04:24:55;;;;;;;34.80;10.68;;;0.90;99.90;;;;;;5097428;28;25130;-70
2023/01/23 04:27:22;;;;;;;33.00;10.30;;;1.00;99.90;;;;;;5062850;28;25069;-70
2023/01/23 04:29:49;;;;;;;41.65;12.85;;;1.00;99.90;;;;;;5098223;28;25058;-70
2023/01/23 04:32:17;;;;;;;41.08;12.40;;;1.00;99.90;;;;;;5079403;28;25074;-70
2023/01/23 04:34:44;;;;;;;48.50;12.77;;;0.90;99.90;;;;;;5097958;28;25135;-70
2023/01/23 04:37:11;;;;;;;37.10;12.10;;;1.00;99.90;;;;;;5079473;28;25076;-70
2023/01/23 04:39:39;;;;;;;39.08;10.82;;;1.00;99.90;;;;;;5097187;28;25067;-70
2023/01/23 04:42:06;;;;;;;43.38;12.48;;;1.00;99.90;;;;;;5079974;28;25070;-70
2023/01/23 04:44:36;;;;;;;33.53;12.07;;;1.00;99.90;;;;;;5097246;28;25077;-70
2023/01/23 04:47:03;;;;;;;37.63;12.55;;;1.00;99.90;;;;;;5096516;28;25122;-70
2023/01/23 04:49:31;;;;;;;40.40;13.88;;;1.00;99.90;;;;;;5097232;28;25097;-70
2023/01/23 04:51:58;;;;;;;40.47;11.50;;;1.00;99.90;;;;;;5079090;28;25081;-70
2023/01/23 04:54:26;;;;;;;32.53;12.20;;;1.00;99.90;;;;;;5096903;28;25079;-70
2023/01/23 04:56:53;;;;;;;42.00;15.93;;;1.00;99.90;;;;;;5078943;28;25077;-70
2023/01/23 04:59:21;;;;;;;36.97;11.35;;;0.90;99.90;;;;;;5097127;28;25121;-70
2023/01/23 05:01:48;;;;;;;38.85;14.00;;;1.00;99.90;;;;;;5096879;28;25090;-70
2023/01/23 05:04:16;;;;;;;33.38;11.90;;;0.90;99.90;;;;;;5096779;28;25068;-70
2023/01/23 05:06:43;;;;;;;34.72;12.63;;;1.00;99.90;;;;;;5097425;28;25100;-70
2023/01/23 05:09:12;;;;;;;27.88;10.90;;;1.00;99.90;;;;;;5097460;28;25123;-70
2023/01/23 05:11:39;;;;;;;37.90;11.98;;;1.00;99.90;;;;;;5097322;28;25072;-70
2023/01/23 05:14:07;;;;;;;35.00;11.82;;;1.00;99.90;;;;;;5096624;28;25071;-70
2023/01/23 05:16:34;;;;;;;36.70;13.15;;;1.00;99.90;;;;;;5096695;28;25061;-70
2023/01/23 05:19:01;;;;;;;38.55;13.52;;;1.00;99.90;;;;;;5096852;28;25104;-70
2023/01/23 05:21:28;;;;;;;27.55;11.68;;;1.00;99.90;;;;;;5097154;28;25114;-70
2023/01/23 05:23:55;;;;;;;33.72;12.13;;;1.00;99.90;;;;;;5078639;28;25066;-70
2023/01/23 05:26:23;;;;;;;33.05;11.45;;;1.00;99.90;;;;;;5078630;28;25057;-70
2023/01/23 05:28:50;;;;;;;32.42;11.90;;;1.00;99.90;;;;;;5097266;28;25079;-70
2023/01/23 05:31:17;;;;;;;31.27;11.55;;;1.10;99.90;;;;;;5097024;28;25073;-70
2023/01/23 05:33:45;;;;;;;25.45;10.05;;;1.00;99.90;;;;;;5078621;28;25075;-70
2023/01/23 05:36:12;;;;;;;30.48;11.50;;;1.00;99.90;;;;;;5096397;28;25139;-70
2023/01/23 05:38:39;;;;;;;22.83;9.20;;;1.00;99.90;;;;;;5096397;28;25094;-71
2023/01/23 05:41:06;;;;;;;22.40;9.20;;;1.00;99.90;;;;;;5078465;28;25076;-70
2023/01/23 05:43:34;;;;;;;19.45;7.72;;;1.00;99.90;;;;;;5096846;28;25111;-70
2023/01/23 05:46:02;;;;;;;17.58;7.18;;;1.00;99.90;;;;;;5096925;28;25074;-70
2023/01/23 05:48:29;;;;;;;15.20;7.70;;;1.00;99.90;;;;;;5096470;28;25117;-70
2023/01/23 05:50:57;;;;;;;18.67;7.53;;;1.00;99.90;;;;;;5078432;28;25080;-70
2023/01/23 05:53:25;;;;;;;19.98;8.30;;;1.00;99.90;;;;;;5096489;28;25082;-70
2023/01/23 05:55:52;;;;;;;20.80;8.75;;;1.00;99.90;;;;;;5079082;28;25081;-71
2023/01/23 05:58:19;;;;;;;18.33;8.07;;;1.00;99.90;;;;;;5097096;28;25060;-71
2023/01/23 06:00:47;;;;;;;17.52;8.05;;;1.00;99.90;;;;;;5100520;28;25068;-70
2023/01/23 06:03:14;;;;;;;16.88;7.75;;;1.00;99.90;;;;;;5082965;28;25067;-70
2023/01/23 06:05:42;;;;;;;15.52;7.93;;;1.00;99.90;;;;;;5100921;28;25111;-70
2023/01/23 06:08:10;;;;;;;24.20;9.13;;;1.00;99.90;;;;;;5100179;28;25059;-70
2023/01/23 06:10:37;;;;;;;18.50;8.95;;;1.00;99.90;;;;;;5082787;28;25116;-71
2023/01/23 06:13:05;;;;;;;19.60;9.07;;;1.00;99.90;;;;;;5100655;28;25072;-70
2023/01/23 06:15:32;;;;;;;19.42;9.60;;;1.00;99.90;;;;;;5100121;28;25067;-70
2023/01/23 06:18:00;;;;;;;23.38;8.80;;;1.00;99.90;;;;;;5100536;28;25061;-70
2023/01/23 06:20:28;;;;;;;19.13;8.20;;;1.00;99.90;;;;;;5100144;28;25053;-70
2023/01/23 06:22:56;;;;;;;19.38;9.48;;;1.00;99.90;;;;;;5099886;28;25065;-70
2023/01/23 06:25:23;;;;;;;17.45;8.02;;;1.00;99.90;;;;;;5100425;28;25080;-70
2023/01/23 06:27:50;;;;;;;19.33;9.05;;;1.00;99.90;;;;;;5099811;28;25148;-70
2023/01/23 06:30:18;;;;;;;17.27;8.55;;;1.00;99.90;;;;;;5100456;28;25078;-70
2023/01/23 06:32:45;;;;;;;20.70;8.68;;;1.00;99.90;;;;;;5099707;28;25107;-70
2023/01/23 06:35:13;;;;;;;18.65;8.77;;;1.00;99.90;;;;;;5099995;28;25124;-70
2023/01/23 06:37:40;;;;;;;20.58;9.13;;;1.00;99.90;;;;;;5082422;28;25063;-70
2023/01/23 06:40:13;;;;;;;20.10;8.80;;;1.00;99.90;;;;;;5099562;28;25114;-70
2023/01/23 06:42:41;;;;;;;22.77;10.00;;;1.00;99.90;;;;;;5099408;28;25110;-71
2023/01/23 06:45:10;;;;;;;22.30;8.85;;;1.00;99.90;;;;;;5081399;28;25074;-70
2023/01/23 06:47:37;;;;;;;19.02;9.98;;;1.00;99.90;;;;;;5099725;28;25057;-69
2023/01/23 06:50:04;;;;;;;21.25;9.43;;;1.00;99.90;;;;;;5099415;28;25067;-69
2023/01/23 06:52:32;;;;;;;21.05;9.25;;;1.00;99.90;;;;;;5099926;28;25049;-70
2023/01/23 06:54:59;;;;;;;18.95;8.65;;;1.00;99.90;;;;;;5099489;28;25094;-76
2023/01/23 06:57:26;;;;;;;19.33;9.85;;;1.00;99.90;;;;;;5079963;28;25077;-78
2023/01/23 06:59:54;;;;;;;23.80;9.70;;;1.00;99.90;;;;;;5099383;28;25048;-82
2023/01/23 07:02:21;;;;;;;21.85;10.68;;;1.00;99.90;;;;;;5099262;28;25052;-79
2023/01/23 07:04:49;;;;;;;44.33;12.65;;;1.00;99.90;;;;;;5080759;28;25076;-81
2023/01/23 07:07:16;;;;;;;21.70;10.40;;;1.00;99.90;;;;;;5080643;28;25045;-76
2023/01/23 07:09:43;;;;;;;22.58;9.40;;;1.00;99.90;;;;;;5099147;28;25133;-77
2023/01/23 07:12:11;;;;;;;24.50;10.95;;;1.00;99.90;;;;;;5080452;28;25123;-76
2023/01/23 07:14:38;;;;;;;19.73;9.60;;;1.10;99.90;;;;;;5081102;28;25111;-77
2023/01/23 07:17:05;;;;;;;26.65;10.68;;;1.00;99.90;;;;;;5081721;28;25061;-76
2023/01/23 07:19:33;;;;;;;22.67;10.25;;;1.00;99.90;;;;;;5098937;28;25124;-77
2023/01/23 07:22:01;;;;;;;23.58;10.82;;;1.10;99.90;;;;;;5098815;28;25152;-82
2023/01/23 07:24:30;;;;;;;22.90;11.38;;;1.10;99.90;;;;;;5080870;28;25047;-78
2023/01/23 07:26:58;;;;;;;18.58;10.38;;;1.10;99.90;;;;;;5080688;28;25050;-79
2023/01/23 07:29:26;;;;;;;22.00;11.30;;;1.00;99.90;;;;;;5098634;28;25075;-77
2023/01/23 07:31:54;;;;;;;25.90;11.65;;;1.10;99.90;;;;;;5098604;28;25078;-78
2023/01/23 07:34:21;;;;;;;19.95;9.82;;;1.10;99.90;;;;;;5098712;28;25072;-74
2023/01/23 07:36:48;;;;;;;18.63;10.00;;;1.00;99.90;;;;;;5080597;28;25095;-74
2023/01/23 07:39:16;;;;;;;25.90;11.43;;;1.10;99.90;;;;;;5076898;28;25124;-73
2023/01/23 07:41:44;;;;;;;26.63;11.73;;;1.10;99.90;;;;;;5078221;28;25097;-77
2023/01/23 07:44:17;;;;;;;23.75;10.73;;;1.10;99.90;;;;;;5078234;28;25048;-74
2023/01/23 07:46:45;;;;;;;23.58;10.27;;;1.10;99.90;;;;;;5078072;28;25060;-74
2023/01/23 07:49:13;;;;;;;21.73;10.65;;;1.10;99.90;;;;;;5077013;28;25057;-73
2023/01/23 07:51:40;;;;;;;23.92;10.88;;;1.10;99.90;;;;;;5078011;28;25135;-73
2023/01/23 07:54:08;;;;;;;22.33;10.10;;;1.10;99.90;;;;;;5076966;28;25118;-73
2023/01/23 07:56:35;;;;;;;24.15;12.00;;;1.10;99.90;;;;;;5077839;28;25061;-72
2023/01/23 07:59:02;;;;;;;24.75;11.88;;;1.20;99.90;;;;;;5078179;28;25095;-74
2023/01/23 08:01:30;;;;;;;31.63;12.43;;;1.20;99.90;;;;;;5077819;28;25064;-69
2023/01/23 08:03:57;;;;;;;30.08;11.38;;;1.20;99.90;;;;;;5077657;28;25126;-69
2023/01/23 08:06:25;;;;;;;25.35;10.82;;;1.20;99.90;;;;;;5077670;28;25112;-69
2023/01/23 08:08:52;;;;;;;26.08;12.15;;;1.20;99.90;;;;;;5077769;28;25090;-69
2023/01/23 08:11:19;;;;;;;25.00;11.43;;;1.20;99.90;;;;;;5077572;28;25116;-71
2023/01/23 08:13:50;;;;;;;24.83;11.75;;;1.20;99.90;;;;;;5078061;28;25112;-72
2023/01/23 08:16:17;;;;;;;26.85;12.18;;;1.20;99.90;;;;;;5077485;28;25073;-72
2023/01/23 08:18:46;;;;;;;29.65;13.52;;;1.30;99.90;;;;;;5077147;28;25059;-72
2023/01/23 08:21:13;;;;;;;27.80;12.63;;;1.30;99.90;;;;;;5077332;28;25087;-73
2023/01/23 08:23:41;;;;;;;26.83;12.73;;;1.30;99.90;;;;;;5076243;28;25074;-73
2023/01/23 08:26:10;;;;;;;29.92;13.07;;;1.30;99.90;;;;;;5077203;28;25117;-71
2023/01/23 08:28:38;;;;;;;27.45;12.88;;;1.30;99.90;;;;;;5077652;28;25077;-72
2023/01/23 08:31:07;;;;;;;29.98;14.20;;;1.40;99.90;;;;;;5077112;28;25056;-72
2023/01/23 08:33:35;;;;;;;30.33;13.82;;;1.40;99.90;;;;;;5077404;28;25055;-73
2023/01/23 08:36:04;;;;;;;35.80;15.68;;;1.40;99.90;;;;;;5077089;28;25071;-72
2023/01/23 08:38:33;;;;;;;28.73;13.27;;;1.40;99.90;;;;;;5082328;28;25070;-73
2023/01/23 08:41:02;;;;;;;26.48;12.35;;;1.40;99.90;;;;;;5097265;28;25056;-73
2023/01/23 08:43:30;;;;;;;28.00;13.95;;;1.40;99.90;;;;;;5097191;28;25075;-72
2023/01/23 08:45:58;;;;;;;32.08;14.30;;;1.40;99.90;;;;;;5097234;28;25129;-73
2023/01/23 08:48:27;;;;;;;28.55;12.70;;;1.50;99.90;;;;;;5079166;28;25056;-73
2023/01/23 08:51:14;;;;;;;30.52;14.07;;;1.50;99.90;;;;;;5079339;28;25111;-73
2023/01/23 08:53:43;;;;;;;28.77;12.35;;;1.60;99.90;;;;;;5097606;28;25066;-73
2023/01/23 08:56:20;;;;;;;25.77;12.90;;;1.60;99.90;;;;;;5097072;28;25122;-73
2023/01/23 08:58:47;;;;;;;25.80;12.82;;;1.60;99.90;;;;;;5079202;28;25129;-72
2023/01/23 09:01:20;;;;;;;30.73;13.45;;;1.70;99.90;;;;;;5096973;28;25078;-73
2023/01/23 09:03:49;;;;;;;28.90;12.60;;;1.70;99.90;;;;;;5097119;28;25049;-73
2023/01/23 09:06:20;;;;;;;29.52;13.15;;;1.70;99.90;;;;;;5096836;28;25081;-73
2023/01/23 09:08:47;;;;;;;25.52;12.50;;;1.70;99.90;;;;;;5097213;28;25138;-73
2023/01/23 09:11:15;;;;;;;27.63;12.60;;;1.70;99.90;;;;;;5078856;28;25062;-73
2023/01/23 09:13:44;;;;;;;25.27;12.30;;;1.80;99.90;;;;;;5097633;28;25111;-72
2023/01/23 09:16:13;;;;;;;23.63;12.90;;;1.80;99.90;;;;;;5096670;28;25098;-72
2023/01/23 09:18:40;;;;;;;24.02;11.57;;;1.90;99.90;;;;;;5097403;28;25054;-73
2023/01/23 09:21:10;;;;;;;29.33;13.55;;;1.90;99.90;;;;;;5096666;28;25136;-73
2023/01/23 09:23:38;;;;;;;27.35;13.35;;;2.00;99.90;;;;;;5097062;28;25136;-72
2023/01/23 09:26:11;;;;;;;27.05;12.05;;;2.00;99.90;;;;;;5096626;28;25103;-73
2023/01/23 09:28:41;;;;;;;25.10;12.25;;;2.00;99.90;;;;;;5096975;28;25106;-73
2023/01/23 09:31:11;;;;;;;29.80;12.80;;;2.00;99.90;;;;;;5096549;28;25045;-72
2023/01/23 09:33:39;;;;;;;26.77;12.70;;;2.10;99.90;;;;;;5096194;28;25067;-72
2023/01/23 09:36:07;;;;;;;28.33;13.57;;;2.10;99.90;;;;;;5096926;28;25044;-72
2023/01/23 09:38:36;;;;;;;30.50;13.32;;;2.10;99.90;;;;;;5096175;28;25075;-73
2023/01/23 09:41:26;;;;;;;25.58;12.45;;;2.20;99.90;;;;;;5078550;28;25069;-73
2023/01/23 09:44:18;;;;;;;22.65;11.65;;;2.20;99.90;;;;;;5097081;28;25080;-73
2023/01/23 09:47:01;;;;;;;26.95;12.20;;;2.20;99.90;;;;;;5096652;28;25059;-73
2023/01/23 09:49:46;;;;;;;31.63;13.38;;;2.30;99.90;;;;;;5096685;28;25074;-75
2023/01/23 09:52:29;;;;;;;24.15;10.80;;;2.20;99.90;;;;;;5096591;28;25071;-72
2023/01/23 09:55:39;;;;;;;26.15;13.43;;;2.30;99.90;;;;;;5096432;28;25126;-73
2023/01/23 09:58:25;;;;;;;27.20;11.80;;;2.20;99.90;;;;;;5085845;28;25063;-73
2023/01/23 10:00:53;;;;;;;33.22;13.88;;;2.20;99.90;;;;;;5096355;28;25084;-73
2023/01/23 10:03:26;;;;;;;32.63;14.70;;;2.30;99.90;;;;;;5078359;28;25057;-73
2023/01/23 10:06:11;;;;;;;35.60;14.18;;;2.20;99.90;;;;;;5096733;28;25099;-73
2023/01/23 10:09:15;;;;;;;31.55;14.23;;;2.20;99.90;;;;;;5096143;28;25134;-73
2023/01/23 10:11:49;;;;;;;32.63;13.68;;;2.20;99.90;;;;;;5096697;28;25075;-72
2023/01/23 10:14:35;;;;;;;30.60;12.80;;;2.10;99.90;;;;;;5095488;28;25117;-73
2023/01/23 10:17:23;;;;;;;31.45;13.30;;;2.10;99.90;;;;;;5074769;28;25086;-73
2023/01/23 10:19:50;;;;;;;29.63;12.73;;;2.10;99.90;;;;;;5078143;28;25059;-72
2023/01/23 10:22:37;;;;;;;35.53;14.57;;;2.10;99.90;;;;;;5096286;28;25103;-73
2023/01/23 10:25:26;;;;;;;31.80;13.73;;;2.10;99.90;;;;;;5096068;28;25098;-71
2023/01/23 10:28:18;;;;;;;29.10;13.27;;;2.10;99.90;;;;;;5096577;28;25154;-72
2023/01/23 10:30:56;;;;;;;28.10;13.35;;;2.20;99.90;;;;;;5077942;28;25066;-72
2023/01/23 10:33:37;;;;;;;28.77;13.25;;;2.20;99.90;;;;;;5096641;28;25061;-72
2023/01/23 10:36:35;;;;;;;28.27;12.80;;;2.20;99.90;;;;;;5096177;28;25083;-72
2023/01/23 10:39:23;;;;;;;28.67;12.75;;;2.20;99.90;;;;;;5074228;28;25092;-72
2023/01/23 10:41:50;;;;;;;28.92;12.05;;;2.20;99.90;;;;;;5075594;28;25134;-72
2023/01/23 10:44:19;;;;;;;31.35;13.23;;;2.20;99.90;;;;;;5076221;28;25136;-73
2023/01/23 10:46:56;;;;;;;30.95;12.50;;;2.20;99.90;;;;;;5077912;28;25074;-73
2023/01/23 10:49:40;;;;;;;31.08;12.85;;;2.20;99.90;;;;;;5079203;28;25078;-73
2023/01/23 10:52:29;;;;;;;30.92;14.48;;;2.20;99.90;;;;;;5079063;28;25084;-73
2023/01/23 10:54:57;;;;;;;28.10;12.98;;;2.20;99.90;;;;;;5079206;28;25055;-73
2023/01/23 10:57:45;;;;;;;29.00;12.27;;;2.20;99.90;;;;;;5079037;28;25066;-73
2023/01/23 11:00:46;;;;;;;32.50;13.80;;;2.20;99.90;;;;;;5078947;28;25106;-72
2023/01/23 11:03:28;;;;;;;33.28;13.95;;;2.20;99.90;;;;;;5078924;28;25091;-73
2023/01/23 11:06:16;;;;;;;29.02;13.32;;;2.20;99.90;;;;;;5078836;28;25048;-72
2023/01/23 11:08:56;;;;;;;25.33;11.85;;;2.20;99.90;;;;;;5078799;28;25077;-73
2023/01/23 11:11:27;;;;;;;28.27;10.98;;;2.30;99.90;;;;;;5079672;28;25052;-72
2023/01/23 11:14:13;;;;;;;29.55;13.15;;;2.30;99.90;;;;;;5079285;28;25062;-70
2023/01/23 11:16:40;;;;;;;32.40;14.02;;;2.30;99.90;;;;;;5078658;28;25106;-72
2023/01/23 11:19:07;;;;;;;26.92;11.20;;;2.30;99.90;;;;;;5060936;28;25073;-72
2023/01/23 11:21:57;;;;;;;22.73;11.20;;;2.40;99.90;;;;;;5079153;28;25120;-71
2023/01/23 11:24:37;;;;;;;25.58;10.65;;;2.40;99.90;;;;;;5078582;28;25110;-71
2023/01/23 11:27:19;;;;;;;24.92;12.52;;;2.50;99.90;;;;;;5077432;28;25072;-72
2023/01/23 11:30:03;;;;;;;28.20;13.18;;;2.50;99.90;;;;;;5077417;28;25063;-72
2023/01/23 11:32:38;;;;;;;27.08;11.20;;;2.60;99.90;;;;;;5078703;28;25063;-71
2023/01/23 11:35:20;;;;;;;26.77;11.97;;;2.70;99.90;;;;;;5078469;28;25053;-72
2023/01/23 11:37:49;;;;;;;21.30;10.50;;;2.70;99.90;;;;;;5078295;28;25094;-72
2023/01/23 11:40:19;;;;;;;28.25;11.77;;;2.70;99.90;;;;;;5097801;28;25120;-73
2023/01/23 11:42:47;;;;;;;22.73;11.10;;;2.80;99.90;;;;;;5099002;28;25065;-73
2023/01/23 11:45:34;;;;;;;26.17;11.88;;;2.80;99.90;;;;;;5098855;28;25115;-73
2023/01/23 11:48:31;;;;;;;25.63;10.90;;;2.90;99.90;;;;;;5098676;28;25072;-74
2023/01/23 11:51:33;;;;;;;24.92;10.93;;;2.90;99.90;;;;;;5080289;28;25062;-76
2023/01/23 11:54:09;;;;;;;23.88;12.07;;;2.90;99.90;;;;;;5098421;28;25123;-75
2023/01/23 11:56:53;;;;;;;;;;;2.80;99.90;;;;;;5098578;28;25117;-75
2023/01/23 11:59:45;;;;;;;27.17;12.00;;;2.80;99.90;;;;;;5098489;28;24052;-74
2023/01/23 12:02:19;;;;;;;27.83;12.20;;;2.80;99.90;;;;;;5099106;28;25095;-74
2023/01/23 12:05:19;;;;;;;26.52;12.55;;;2.80;99.90;;;;;;5098206;28;25057;-75
2023/01/23 12:08:14;;;;;;;29.63;13.57;;;2.80;99.90;;;;;;5098165;28;25064;-75
2023/01/23 12:11:12;;;;;;;28.73;12.75;;;2.80;99.90;;;;;;5079759;28;25138;-75
2023/01/23 12:13:53;;;;;;;28.98;12.80;;;2.80;99.90;;;;;;5097829;28;25105;-78
2023/01/23 12:16:36;;;;;;;29.05;12.65;;;2.80;99.90;;;;;;5098298;28;25061;-80
2023/01/23 12:19:50;;;;;;;27.15;12.07;;;2.80;99.90;;;;;;5098429;28;25126;-73
2023/01/23 12:22:31;;;;;;;23.08;10.85;;;2.80;99.90;;;;;;5098246;28;25068;-75
2023/01/23 12:25:28;;;;;;;25.50;11.10;;;2.80;99.90;;;;;;5097483;28;25082;-74
2023/01/23 12:28:08;;;;;;;26.13;12.23;;;2.70;99.90;;;;;;5097804;28;25088;-74
2023/01/23 12:30:59;;;;;;;31.50;12.23;;;2.70;99.90;;;;;;5079461;28;25069;-73
2023/01/23 12:34:02;;;;;;;28.70;12.57;;;2.70;99.90;;;;;;5097437;28;25111;-73
2023/01/23 12:36:51;;;;;;;28.15;13.07;;;2.70;99.90;;;;;;5097364;28;25074;-73
2023/01/23 12:39:51;;;;;;;29.02;12.45;;;2.70;99.90;;;;;;5097351;28;25064;-73
2023/01/23 12:42:28;;;;;;;23.92;11.95;;;2.70;99.90;;;;;;5097261;28;25105;-74
2023/01/23 12:45:35;;;;;;;29.10;12.70;;;2.60;99.90;;;;;;5098715;28;25082;-73
2023/01/23 12:48:07;;;;;;;29.90;12.93;;;2.60;99.90;;;;;;5063588;28;25075;-73
2023/01/23 12:50:53;;;;;;;29.00;13.05;;;2.60;99.90;;;;;;5097675;28;25055;-73
2023/01/23 12:53:25;;;;;;;30.95;12.95;;;2.60;99.90;;;;;;5097158;28;25065;-73
2023/01/23 12:56:02;;;;;;;26.83;12.15;;;2.60;99.90;;;;;;5097319;28;25064;-73
2023/01/23 12:58:35;;;;;;;23.45;12.25;;;2.60;99.90;;;;;;5097366;28;25073;-72
2023/01/23 13:01:09;;;;;;;29.42;12.80;;;2.60;99.90;;;;;;5097249;28;25073;-72
2023/01/23 13:03:45;;;;;;;29.92;13.38;;;2.60;99.90;;;;;;5097369;28;25067;-72
2023/01/23 13:06:19;;;;;;;28.15;12.68;;;2.60;99.90;;;;;;5097449;28;25088;-72
2023/01/23 13:09:20;;;;;;;29.40;12.45;;;2.60;99.90;;;;;;5096672;28;25086;-73
2023/01/23 13:11:58;;;;;;;31.35;12.60;;;2.60;99.90;;;;;;5078873;28;25071;-73